Flight Training


We provide structured training required to obtain a pilots certificate ranging from a Private Pilot up to ATP flying for the major airlines.

If your desire to fly is for personal pleasure the first step is to find a professional FAA licensed flight instructor to begin your journey.

The one-hour introductory flight with an instructor lasts one hour and features a log book and a six-month subscription to Flight Training magazine. After flying you to the training area, your instructor will let you test the controls. Call us now

 

Aviation Weather

Available data for KLDJ from the past 2 hours
LINDEN, NJ
Metar
KLDJ 182335Z AUTO 00000KT 3SM -RA OVC011 A2988 RMK AO2 LTG DSNT W P0009

23:35 UTC

Wind: 0° 0kt

Visibility: 3 SM

Sky: OVC 1100 ft

Temp: / 32 deg F

Dewpoint: / 32 deg F

Pressure: 29.88 inHg

Pireps (3)
EWR UA /OV RY22L/TM 2303/FL012/TP B757/SK 012OVC/RM ILS RY22L
MMU UA /OV MMU/TM 2222/FL012/TP F900
EWR UA /OV RY22L/TM 2146/FL012/TP E145/SK 012OVC/RM ILS RY22L

Available data for KEWR from the past hour
NEWARK, NJ
TAF
KEWR 182252Z 1823/1924 03008KT 2SM TSRA SCT007 OVC015CB TEMPO 1823/1824 1SM +TSRA BKN007CB FM190100 04006KT 5SM -SHRA BR VCTS BKN015CB FM190200 04006KT 5SM BR BKN015 FM190400 02004KT 6SM BR BKN015 FM191500 25006KT P6SM SCT015 SCT250 FM192100 22012KT P6SM SCT250
Pirep (1)
EWR UA /OV RY22L/TM 2303/FL012/TP B757/SK 012OVC/RM ILS RY22L

Our planes

Some of our students